sensor_id;sensor_type;location;lat;lon;timestamp;P1;durP1;ratioP1;P2;durP2;ratioP2
63112;SDS011;49206;48.020;21.378;2023-09-19T00:00:00;14.05;;;8.25;;
63112;SDS011;49206;48.020;21.378;2023-09-19T00:01:05;12.07;;;7.40;;
63112;SDS011;49206;48.020;21.378;2023-09-19T00:02:10;10.18;;;7.55;;
63112;SDS011;49206;48.020;21.378;2023-09-19T00:03:14;9.05;;;7.18;;
63112;SDS011;49206;48.020;21.378;2023-09-19T00:04:16;10.73;;;7.70;;
63112;SDS011;49206;48.020;21.378;2023-09-19T00:05:21;10.73;;;7.43;;
63112;SDS011;49206;48.020;21.378;2023-09-19T00:06:29;8.15;;;7.32;;
63112;SDS011;49206;48.020;21.378;2023-09-19T00:07:33;10.35;;;7.82;;
63112;SDS011;49206;48.020;21.378;2023-09-19T00:08:38;8.55;;;7.30;;
63112;SDS011;49206;48.020;21.378;2023-09-19T00:09:41;9.95;;;7.25;;
63112;SDS011;49206;48.020;21.378;2023-09-19T00:10:46;10.60;;;7.82;;
63112;SDS011;49206;48.020;21.378;2023-09-19T00:11:50;10.48;;;7.18;;
63112;SDS011;49206;48.020;21.378;2023-09-19T00:12:53;10.18;;;7.50;;
63112;SDS011;49206;48.020;21.378;2023-09-19T00:14:01;8.35;;;7.47;;
63112;SDS011;49206;48.020;21.378;2023-09-19T00:15:04;9.98;;;7.70;;
63112;SDS011;49206;48.020;21.378;2023-09-19T00:16:09;8.93;;;7.97;;
63112;SDS011;49206;48.020;21.378;2023-09-19T00:17:16;10.50;;;7.35;;
63112;SDS011;49206;48.020;21.378;2023-09-19T00:18:19;11.52;;;8.25;;
63112;SDS011;49206;48.020;21.378;2023-09-19T00:19:26;11.38;;;8.10;;
63112;SDS011;49206;48.020;21.378;2023-09-19T00:20:29;10.38;;;7.50;;
63112;SDS011;49206;48.020;21.378;2023-09-19T00:21:32;8.50;;;6.88;;
63112;SDS011;49206;48.020;21.378;2023-09-19T00:22:35;9.45;;;7.80;;
63112;SDS011;49206;48.020;21.378;2023-09-19T00:23:42;10.75;;;7.55;;
63112;SDS011;49206;48.020;21.378;2023-09-19T00:24:44;10.20;;;7.45;;
63112;SDS011;49206;48.020;21.378;2023-09-19T00:25:48;11.50;;;7.57;;
63112;SDS011;49206;48.020;21.378;2023-09-19T00:26:50;12.93;;;7.80;;
63112;SDS011;49206;48.020;21.378;2023-09-19T00:27:54;10.10;;;7.63;;
63112;SDS011;49206;48.020;21.378;2023-09-19T00:28:56;11.50;;;8.45;;
63112;SDS011;49206;48.020;21.378;2023-09-19T00:29:59;9.50;;;7.70;;
63112;SDS011;49206;48.020;21.378;2023-09-19T00:31:02;9.77;;;8.77;;
63112;SDS011;49206;48.020;21.378;2023-09-19T00:32:07;10.52;;;8.30;;
63112;SDS011;49206;48.020;21.378;2023-09-19T00:33:11;12.32;;;8.80;;
63112;SDS011;49206;48.020;21.378;2023-09-19T00:34:18;9.98;;;7.72;;
63112;SDS011;49206;48.020;21.378;2023-09-19T00:35:22;10.20;;;8.40;;
63112;SDS011;49206;48.020;21.378;2023-09-19T00:36:31;12.05;;;8.82;;
63112;SDS011;49206;48.020;21.378;2023-09-19T00:37:33;11.05;;;8.13;;
63112;SDS011;49206;48.020;21.378;2023-09-19T00:38:36;12.68;;;8.80;;
63112;SDS011;49206;48.020;21.378;2023-09-19T00:39:39;12.15;;;8.50;;
63112;SDS011;49206;48.020;21.378;2023-09-19T00:41:48;10.10;;;8.40;;
63112;SDS011;49206;48.020;21.378;2023-09-19T00:42:51;9.27;;;7.93;;
63112;SDS011;49206;48.020;21.378;2023-09-19T00:43:54;11.65;;;8.45;;
63112;SDS011;49206;48.020;21.378;2023-09-19T00:44:57;9.50;;;8.20;;
63112;SDS011;49206;48.020;21.378;2023-09-19T00:45:59;12.40;;;8.90;;
63112;SDS011;49206;48.020;21.378;2023-09-19T00:47:05;13.07;;;8.82;;
63112;SDS011;49206;48.020;21.378;2023-09-19T00:48:08;11.00;;;8.00;;
63112;SDS011;49206;48.020;21.378;2023-09-19T00:49:11;11.27;;;8.23;;
63112;SDS011;49206;48.020;21.378;2023-09-19T00:50:16;13.93;;;8.82;;
63112;SDS011;49206;48.020;21.378;2023-09-19T00:51:21;12.82;;;8.40;;
63112;SDS011;49206;48.020;21.378;2023-09-19T00:52:24;9.98;;;8.15;;
63112;SDS011;49206;48.020;21.378;2023-09-19T00:53:27;10.35;;;8.13;;
63112;SDS011;49206;48.020;21.378;2023-09-19T00:54:30;11.75;;;8.05;;
63112;SDS011;49206;48.020;21.378;2023-09-19T00:55:32;11.32;;;8.27;;
63112;SDS011;49206;48.020;21.378;2023-09-19T00:56:35;11.13;;;8.63;;
63112;SDS011;49206;48.020;21.378;2023-09-19T00:57:43;16.05;;;9.45;;
63112;SDS011;49206;48.020;21.378;2023-09-19T00:58:46;16.80;;;10.07;;
63112;SDS011;49206;48.020;21.378;2023-09-19T00:59:50;14.40;;;9.98;;
63112;SDS011;49206;48.020;21.378;2023-09-19T01:00:53;17.80;;;9.75;;
63112;SDS011;49206;48.020;21.378;2023-09-19T01:01:56;13.73;;;10.98;;
63112;SDS011;49206;48.020;21.378;2023-09-19T01:02:59;12.02;;;9.77;;
63112;SDS011;49206;48.020;21.378;2023-09-19T01:04:03;12.27;;;9.27;;
63112;SDS011;49206;48.020;21.378;2023-09-19T01:05:06;11.38;;;10.10;;
63112;SDS011;49206;48.020;21.378;2023-09-19T01:06:09;14.75;;;10.65;;
63112;SDS011;49206;48.020;21.378;2023-09-19T01:07:13;11.70;;;9.00;;
63112;SDS011;49206;48.020;21.378;2023-09-19T01:08:19;11.13;;;9.05;;
63112;SDS011;49206;48.020;21.378;2023-09-19T01:09:22;12.00;;;9.18;;
63112;SDS011;49206;48.020;21.378;2023-09-19T01:10:24;10.93;;;8.98;;
63112;SDS011;49206;48.020;21.378;2023-09-19T01:11:35;12.07;;;9.20;;
63112;SDS011;49206;48.020;21.378;2023-09-19T01:13:50;15.07;;;9.07;;
63112;SDS011;49206;48.020;21.378;2023-09-19T01:15:03;20.02;;;10.45;;
63112;SDS011;49206;48.020;21.378;2023-09-19T01:16:23;14.02;;;10.15;;
63112;SDS011;49206;48.020;21.378;2023-09-19T01:17:44;13.23;;;9.63;;
63112;SDS011;49206;48.020;21.378;2023-09-19T01:21:50;13.63;;;10.07;;
63112;SDS011;49206;48.020;21.378;2023-09-19T01:23:10;14.52;;;11.65;;
63112;SDS011;49206;48.020;21.378;2023-09-19T01:26:10;13.45;;;11.32;;
63112;SDS011;49206;48.020;21.378;2023-09-19T01:30:50;15.95;;;11.60;;
63112;SDS011;49206;48.020;21.378;2023-09-19T01:31:59;16.15;;;11.73;;
63112;SDS011;49206;48.020;21.378;2023-09-19T01:33:04;14.70;;;12.40;;
63112;SDS011;49206;48.020;21.378;2023-09-19T01:34:08;17.58;;;12.32;;
63112;SDS011;49206;48.020;21.378;2023-09-19T01:35:11;20.17;;;12.35;;
63112;SDS011;49206;48.020;21.378;2023-09-19T01:37:18;16.95;;;11.18;;
63112;SDS011;49206;48.020;21.378;2023-09-19T01:38:22;15.70;;;12.45;;
63112;SDS011;49206;48.020;21.378;2023-09-19T01:39:25;16.55;;;12.20;;
63112;SDS011;49206;48.020;21.378;2023-09-19T01:40:28;15.63;;;11.57;;
63112;SDS011;49206;48.020;21.378;2023-09-19T01:44:36;13.70;;;10.80;;
63112;SDS011;49206;48.020;21.378;2023-09-19T01:47:00;15.75;;;11.43;;
63112;SDS011;49206;48.020;21.378;2023-09-19T01:53:02;14.38;;;10.88;;
63112;SDS011;49206;48.020;21.378;2023-09-19T01:54:10;15.18;;;11.85;;
63112;SDS011;49206;48.020;21.378;2023-09-19T01:55:17;15.82;;;12.13;;
63112;SDS011;49206;48.020;21.378;2023-09-19T01:56:48;15.55;;;10.60;;
63112;SDS011;49206;48.020;21.378;2023-09-19T01:58:01;15.65;;;10.77;;
63112;SDS011;49206;48.020;21.378;2023-09-19T01:59:10;14.45;;;10.30;;
63112;SDS011;49206;48.020;21.378;2023-09-19T02:00:15;15.35;;;8.80;;
63112;SDS011;49206;48.020;21.378;2023-09-19T02:01:22;16.35;;;9.80;;
63112;SDS011;49206;48.020;21.378;2023-09-19T02:02:25;14.73;;;10.82;;
63112;SDS011;49206;48.020;21.378;2023-09-19T02:03:28;16.27;;;10.38;;
63112;SDS011;49206;48.020;21.378;2023-09-19T02:04:34;20.85;;;10.85;;
63112;SDS011;49206;48.020;21.378;2023-09-19T02:05:37;17.27;;;10.77;;
63112;SDS011;49206;48.020;21.378;2023-09-19T02:07:44;17.90;;;11.13;;
63112;SDS011;49206;48.020;21.378;2023-09-19T02:08:47;12.73;;;9.93;;
63112;SDS011;49206;48.020;21.378;2023-09-19T02:09:50;12.85;;;10.27;;
63112;SDS011;49206;48.020;21.378;2023-09-19T02:10:52;17.52;;;11.25;;
63112;SDS011;49206;48.020;21.378;2023-09-19T02:11:55;18.52;;;11.10;;
63112;SDS011;49206;48.020;21.378;2023-09-19T02:12:58;16.42;;;10.75;;
63112;SDS011;49206;48.020;21.378;2023-09-19T02:14:01;15.13;;;11.45;;
63112;SDS011;49206;48.020;21.378;2023-09-19T02:15:05;17.27;;;11.45;;
63112;SDS011;49206;48.020;21.378;2023-09-19T02:16:09;17.45;;;10.70;;
63112;SDS011;49206;48.020;21.378;2023-09-19T02:17:13;14.27;;;10.82;;
63112;SDS011;49206;48.020;21.378;2023-09-19T02:18:16;16.23;;;11.55;;
63112;SDS011;49206;48.020;21.378;2023-09-19T02:19:19;18.33;;;11.85;;
63112;SDS011;49206;48.020;21.378;2023-09-19T02:20:24;17.10;;;11.43;;
63112;SDS011;49206;48.020;21.378;2023-09-19T02:21:28;17.15;;;11.98;;
63112;SDS011;49206;48.020;21.378;2023-09-19T02:22:31;16.83;;;11.48;;
63112;SDS011;49206;48.020;21.378;2023-09-19T02:23:34;16.25;;;12.20;;
63112;SDS011;49206;48.020;21.378;2023-09-19T02:24:37;17.98;;;12.05;;
63112;SDS011;49206;48.020;21.378;2023-09-19T02:25:40;42.20;;;14.50;;
63112;SDS011;49206;48.020;21.378;2023-09-19T02:26:43;17.83;;;11.98;;
63112;SDS011;49206;48.020;21.378;2023-09-19T02:27:46;17.92;;;12.85;;
63112;SDS011;49206;48.020;21.378;2023-09-19T02:28:49;16.52;;;12.48;;
63112;SDS011;49206;48.020;21.378;2023-09-19T02:29:52;19.45;;;13.00;;
63112;SDS011;49206;48.020;21.378;2023-09-19T02:30:54;20.02;;;13.32;;
63112;SDS011;49206;48.020;21.378;2023-09-19T02:31:58;19.63;;;12.95;;
63112;SDS011;49206;48.020;21.378;2023-09-19T02:33:01;20.15;;;14.32;;
63112;SDS011;49206;48.020;21.378;2023-09-19T02:34:07;19.98;;;13.52;;
63112;SDS011;49206;48.020;21.378;2023-09-19T02:35:11;24.63;;;13.93;;
63112;SDS011;49206;48.020;21.378;2023-09-19T02:36:14;19.35;;;13.73;;
63112;SDS011;49206;48.020;21.378;2023-09-19T02:37:19;22.90;;;14.43;;
63112;SDS011;49206;48.020;21.378;2023-09-19T02:38:22;19.52;;;13.20;;
63112;SDS011;49206;48.020;21.378;2023-09-19T02:39:27;16.38;;;12.98;;
63112;SDS011;49206;48.020;21.378;2023-09-19T02:40:30;19.95;;;14.73;;
63112;SDS011;49206;48.020;21.378;2023-09-19T02:41:34;20.25;;;14.13;;
63112;SDS011;49206;48.020;21.378;2023-09-19T02:42:37;20.70;;;14.57;;
63112;SDS011;49206;48.020;21.378;2023-09-19T02:43:40;17.40;;;13.20;;
63112;SDS011;49206;48.020;21.378;2023-09-19T02:44:43;20.63;;;13.05;;
63112;SDS011;49206;48.020;21.378;2023-09-19T02:45:50;14.20;;;11.82;;
63112;SDS011;49206;48.020;21.378;2023-09-19T02:46:53;16.10;;;12.43;;
63112;SDS011;49206;48.020;21.378;2023-09-19T02:47:57;19.48;;;13.55;;
63112;SDS011;49206;48.020;21.378;2023-09-19T02:49:00;18.17;;;12.80;;
63112;SDS011;49206;48.020;21.378;2023-09-19T02:50:03;22.48;;;14.07;;
63112;SDS011;49206;48.020;21.378;2023-09-19T02:51:06;21.73;;;13.82;;
63112;SDS011;49206;48.020;21.378;2023-09-19T02:52:09;19.35;;;13.38;;
63112;SDS011;49206;48.020;21.378;2023-09-19T02:53:13;17.95;;;13.07;;
63112;SDS011;49206;48.020;21.378;2023-09-19T02:54:17;19.02;;;14.32;;
63112;SDS011;49206;48.020;21.378;2023-09-19T02:55:19;18.35;;;13.32;;
63112;SDS011;49206;48.020;21.378;2023-09-19T02:56:24;17.17;;;13.43;;
63112;SDS011;49206;48.020;21.378;2023-09-19T02:57:27;21.17;;;12.13;;
63112;SDS011;49206;48.020;21.378;2023-09-19T02:58:29;17.23;;;12.77;;
63112;SDS011;49206;48.020;21.378;2023-09-19T02:59:32;19.30;;;12.90;;
63112;SDS011;49206;48.020;21.378;2023-09-19T03:00:36;17.52;;;13.32;;
63112;SDS011;49206;48.020;21.378;2023-09-19T03:01:38;21.13;;;12.95;;
63112;SDS011;49206;48.020;21.378;2023-09-19T03:02:41;17.88;;;12.88;;
63112;SDS011;49206;48.020;21.378;2023-09-19T03:03:45;14.40;;;12.05;;
63112;SDS011;49206;48.020;21.378;2023-09-19T03:04:48;17.33;;;12.68;;
63112;SDS011;49206;48.020;21.378;2023-09-19T03:05:53;18.20;;;13.07;;
63112;SDS011;49206;48.020;21.378;2023-09-19T03:08:03;17.80;;;12.15;;
63112;SDS011;49206;48.020;21.378;2023-09-19T03:09:06;17.08;;;12.43;;
63112;SDS011;49206;48.020;21.378;2023-09-19T03:10:16;16.40;;;12.82;;
63112;SDS011;49206;48.020;21.378;2023-09-19T03:11:19;17.23;;;12.18;;
63112;SDS011;49206;48.020;21.378;2023-09-19T03:12:27;17.48;;;14.05;;
63112;SDS011;49206;48.020;21.378;2023-09-19T03:13:34;18.13;;;13.60;;
63112;SDS011;49206;48.020;21.378;2023-09-19T03:14:43;18.52;;;13.88;;
63112;SDS011;49206;48.020;21.378;2023-09-19T03:15:46;18.85;;;12.85;;
63112;SDS011;49206;48.020;21.378;2023-09-19T03:16:52;19.42;;;13.18;;
63112;SDS011;49206;48.020;21.378;2023-09-19T03:17:56;16.63;;;12.65;;
63112;SDS011;49206;48.020;21.378;2023-09-19T03:20:05;17.35;;;11.07;;
63112;SDS011;49206;48.020;21.378;2023-09-19T03:21:10;17.35;;;11.43;;
63112;SDS011;49206;48.020;21.378;2023-09-19T03:22:16;20.30;;;13.05;;
63112;SDS011;49206;48.020;21.378;2023-09-19T03:23:19;16.25;;;11.73;;
63112;SDS011;49206;48.020;21.378;2023-09-19T03:24:22;16.17;;;12.48;;
63112;SDS011;49206;48.020;21.378;2023-09-19T03:25:25;16.08;;;12.48;;
63112;SDS011;49206;48.020;21.378;2023-09-19T03:26:28;16.80;;;14.07;;
63112;SDS011;49206;48.020;21.378;2023-09-19T03:27:31;19.83;;;12.65;;
63112;SDS011;49206;48.020;21.378;2023-09-19T03:28:34;19.08;;;13.25;;
63112;SDS011;49206;48.020;21.378;2023-09-19T03:29:37;16.10;;;12.55;;
63112;SDS011;49206;48.020;21.378;2023-09-19T03:30:41;18.25;;;13.50;;
63112;SDS011;49206;48.020;21.378;2023-09-19T03:31:45;18.90;;;14.27;;
63112;SDS011;49206;48.020;21.378;2023-09-19T03:32:48;20.05;;;12.48;;
63112;SDS011;49206;48.020;21.378;2023-09-19T03:33:53;19.58;;;13.70;;
63112;SDS011;49206;48.020;21.378;2023-09-19T03:34:58;18.45;;;12.27;;
63112;SDS011;49206;48.020;21.378;2023-09-19T03:36:04;14.25;;;11.23;;
63112;SDS011;49206;48.020;21.378;2023-09-19T03:37:07;14.80;;;11.15;;
63112;SDS011;49206;48.020;21.378;2023-09-19T03:38:11;17.83;;;12.52;;
63112;SDS011;49206;48.020;21.378;2023-09-19T03:39:14;16.77;;;12.27;;
63112;SDS011;49206;48.020;21.378;2023-09-19T03:40:18;18.35;;;12.55;;
63112;SDS011;49206;48.020;21.378;2023-09-19T03:41:24;16.98;;;12.65;;
63112;SDS011;49206;48.020;21.378;2023-09-19T03:42:27;23.10;;;13.73;;
63112;SDS011;49206;48.020;21.378;2023-09-19T03:43:31;17.27;;;12.60;;
63112;SDS011;49206;48.020;21.378;2023-09-19T03:44:34;19.15;;;13.20;;
63112;SDS011;49206;48.020;21.378;2023-09-19T03:45:37;19.70;;;13.32;;
63112;SDS011;49206;48.020;21.378;2023-09-19T03:46:40;17.73;;;12.10;;
63112;SDS011;49206;48.020;21.378;2023-09-19T03:47:43;16.20;;;12.25;;
63112;SDS011;49206;48.020;21.378;2023-09-19T03:48:45;17.15;;;11.65;;
63112;SDS011;49206;48.020;21.378;2023-09-19T03:49:48;17.42;;;12.57;;
63112;SDS011;49206;48.020;21.378;2023-09-19T03:50:51;16.23;;;12.35;;
63112;SDS011;49206;48.020;21.378;2023-09-19T03:51:54;17.50;;;12.60;;
63112;SDS011;49206;48.020;21.378;2023-09-19T03:52:57;20.10;;;12.60;;
63112;SDS011;49206;48.020;21.378;2023-09-19T03:54:00;19.45;;;12.90;;
63112;SDS011;49206;48.020;21.378;2023-09-19T03:55:03;18.17;;;11.48;;
63112;SDS011;49206;48.020;21.378;2023-09-19T03:56:09;20.67;;;12.13;;
63112;SDS011;49206;48.020;21.378;2023-09-19T03:57:12;18.20;;;11.65;;
63112;SDS011;49206;48.020;21.378;2023-09-19T03:58:19;17.27;;;11.88;;
63112;SDS011;49206;48.020;21.378;2023-09-19T04:00:25;15.65;;;11.88;;
63112;SDS011;49206;48.020;21.378;2023-09-19T04:01:28;15.40;;;11.07;;
63112;SDS011;49206;48.020;21.378;2023-09-19T04:02:34;15.55;;;10.95;;
63112;SDS011;49206;48.020;21.378;2023-09-19T04:03:37;16.30;;;11.32;;
63112;SDS011;49206;48.020;21.378;2023-09-19T04:04:50;24.50;;;13.25;;
63112;SDS011;49206;48.020;21.378;2023-09-19T04:05:54;14.10;;;11.02;;
63112;SDS011;49206;48.020;21.378;2023-09-19T04:06:57;15.88;;;11.25;;
63112;SDS011;49206;48.020;21.378;2023-09-19T04:09:03;16.40;;;11.98;;
63112;SDS011;49206;48.020;21.378;2023-09-19T04:10:09;16.80;;;11.85;;
63112;SDS011;49206;48.020;21.378;2023-09-19T04:11:13;19.77;;;11.75;;
63112;SDS011;49206;48.020;21.378;2023-09-19T04:12:16;20.85;;;12.18;;
63112;SDS011;49206;48.020;21.378;2023-09-19T04:13:20;19.10;;;13.13;;
63112;SDS011;49206;48.020;21.378;2023-09-19T04:14:23;17.73;;;12.55;;
63112;SDS011;49206;48.020;21.378;2023-09-19T04:15:25;16.85;;;12.98;;
63112;SDS011;49206;48.020;21.378;2023-09-19T04:16:28;16.25;;;11.75;;
63112;SDS011;49206;48.020;21.378;2023-09-19T04:17:31;17.73;;;12.25;;
63112;SDS011;49206;48.020;21.378;2023-09-19T04:18:38;14.88;;;12.32;;
63112;SDS011;49206;48.020;21.378;2023-09-19T04:19:43;17.75;;;12.00;;
63112;SDS011;49206;48.020;21.378;2023-09-19T04:20:48;18.50;;;13.85;;
63112;SDS011;49206;48.020;21.378;2023-09-19T04:21:52;23.13;;;13.57;;
63112;SDS011;49206;48.020;21.378;2023-09-19T04:22:55;15.63;;;12.45;;
63112;SDS011;49206;48.020;21.378;2023-09-19T04:23:58;19.00;;;12.00;;
63112;SDS011;49206;48.020;21.378;2023-09-19T04:25:01;17.95;;;12.43;;
63112;SDS011;49206;48.020;21.378;2023-09-19T04:26:04;18.25;;;13.05;;
63112;SDS011;49206;48.020;21.378;2023-09-19T04:27:07;17.58;;;12.45;;
63112;SDS011;49206;48.020;21.378;2023-09-19T04:28:10;16.00;;;12.07;;
63112;SDS011;49206;48.020;21.378;2023-09-19T04:29:13;16.38;;;12.82;;
63112;SDS011;49206;48.020;21.378;2023-09-19T04:30:16;16.98;;;12.60;;
63112;SDS011;49206;48.020;21.378;2023-09-19T04:31:18;16.80;;;12.38;;
63112;SDS011;49206;48.020;21.378;2023-09-19T04:32:31;18.08;;;12.75;;
63112;SDS011;49206;48.020;21.378;2023-09-19T04:33:45;17.95;;;12.68;;
63112;SDS011;49206;48.020;21.378;2023-09-19T04:34:47;18.05;;;11.52;;
63112;SDS011;49206;48.020;21.378;2023-09-19T04:35:52;18.98;;;12.10;;
63112;SDS011;49206;48.020;21.378;2023-09-19T04:37:22;21.40;;;11.93;;
63112;SDS011;49206;48.020;21.378;2023-09-19T04:38:25;17.17;;;12.68;;
63112;SDS011;49206;48.020;21.378;2023-09-19T04:39:30;17.33;;;12.60;;
63112;SDS011;49206;48.020;21.378;2023-09-19T04:40:36;15.98;;;12.43;;
63112;SDS011;49206;48.020;21.378;2023-09-19T04:41:44;17.23;;;12.02;;
63112;SDS011;49206;48.020;21.378;2023-09-19T04:43:17;14.70;;;10.77;;
63112;SDS011;49206;48.020;21.378;2023-09-19T04:45:26;17.92;;;10.93;;
63112;SDS011;49206;48.020;21.378;2023-09-19T04:46:32;16.48;;;12.00;;
63112;SDS011;49206;48.020;21.378;2023-09-19T04:47:35;15.55;;;12.25;;
63112;SDS011;49206;48.020;21.378;2023-09-19T04:48:41;17.58;;;12.00;;
63112;SDS011;49206;48.020;21.378;2023-09-19T04:49:44;16.75;;;12.88;;
63112;SDS011;49206;48.020;21.378;2023-09-19T04:50:48;19.02;;;13.10;;
63112;SDS011;49206;48.020;21.378;2023-09-19T04:51:51;18.17;;;12.43;;
63112;SDS011;49206;48.020;21.378;2023-09-19T04:52:53;16.05;;;11.93;;
63112;SDS011;49206;48.020;21.378;2023-09-19T04:53:56;15.90;;;12.65;;
63112;SDS011;49206;48.020;21.378;2023-09-19T04:55:03;18.40;;;13.30;;
63112;SDS011;49206;48.020;21.378;2023-09-19T04:56:09;18.55;;;12.75;;
63112;SDS011;49206;48.020;21.378;2023-09-19T04:57:13;18.42;;;13.02;;
63112;SDS011;49206;48.020;21.378;2023-09-19T04:58:33;20.77;;;13.23;;
63112;SDS011;49206;48.020;21.378;2023-09-19T04:59:36;15.82;;;12.20;;
63112;SDS011;49206;48.020;21.378;2023-09-19T05:00:42;18.60;;;13.00;;
63112;SDS011;49206;48.020;21.378;2023-09-19T05:01:51;17.80;;;12.45;;
63112;SDS011;49206;48.020;21.378;2023-09-19T05:02:55;16.63;;;11.95;;
63112;SDS011;49206;48.020;21.378;2023-09-19T05:03:59;20.30;;;12.73;;
63112;SDS011;49206;48.020;21.378;2023-09-19T05:05:01;16.92;;;11.95;;
63112;SDS011;49206;48.020;21.378;2023-09-19T05:06:04;17.80;;;11.82;;
63112;SDS011;49206;48.020;21.378;2023-09-19T05:07:08;17.13;;;12.00;;
63112;SDS011;49206;48.020;21.378;2023-09-19T05:08:10;16.08;;;11.68;;
63112;SDS011;49206;48.020;21.378;2023-09-19T05:09:13;18.20;;;12.55;;
63112;SDS011;49206;48.020;21.378;2023-09-19T05:10:15;19.33;;;12.82;;
63112;SDS011;49206;48.020;21.378;2023-09-19T05:11:21;17.15;;;12.60;;
63112;SDS011;49206;48.020;21.378;2023-09-19T05:12:27;17.65;;;12.25;;
63112;SDS011;49206;48.020;21.378;2023-09-19T05:13:30;18.40;;;13.23;;
63112;SDS011;49206;48.020;21.378;2023-09-19T05:14:33;21.20;;;12.63;;
63112;SDS011;49206;48.020;21.378;2023-09-19T05:15:36;19.02;;;13.30;;
63112;SDS011;49206;48.020;21.378;2023-09-19T05:16:41;18.40;;;13.00;;
63112;SDS011;49206;48.020;21.378;2023-09-19T05:17:52;17.58;;;12.77;;
63112;SDS011;49206;48.020;21.378;2023-09-19T05:18:59;18.17;;;13.25;;
63112;SDS011;49206;48.020;21.378;2023-09-19T05:20:03;19.02;;;12.73;;
63112;SDS011;49206;48.020;21.378;2023-09-19T05:21:33;18.45;;;13.73;;
63112;SDS011;49206;48.020;21.378;2023-09-19T05:22:36;19.52;;;13.68;;
63112;SDS011;49206;48.020;21.378;2023-09-19T05:23:42;16.83;;;12.43;;
63112;SDS011;49206;48.020;21.378;2023-09-19T05:24:46;18.73;;;13.27;;
63112;SDS011;49206;48.020;21.378;2023-09-19T05:25:50;20.38;;;13.30;;
63112;SDS011;49206;48.020;21.378;2023-09-19T05:26:53;17.33;;;13.65;;
63112;SDS011;49206;48.020;21.378;2023-09-19T05:28:00;18.90;;;13.35;;
63112;SDS011;49206;48.020;21.378;2023-09-19T05:29:06;18.65;;;13.35;;
63112;SDS011;49206;48.020;21.378;2023-09-19T05:30:10;19.88;;;13.68;;
63112;SDS011;49206;48.020;21.378;2023-09-19T05:31:13;19.65;;;13.73;;
63112;SDS011;49206;48.020;21.378;2023-09-19T05:32:17;18.95;;;14.95;;
63112;SDS011;49206;48.020;21.378;2023-09-19T05:33:25;20.48;;;14.23;;
63112;SDS011;49206;48.020;21.378;2023-09-19T05:34:31;21.52;;;15.30;;
63112;SDS011;49206;48.020;21.378;2023-09-19T05:35:34;18.90;;;13.90;;
63112;SDS011;49206;48.020;21.378;2023-09-19T05:36:39;17.55;;;13.82;;
63112;SDS011;49206;48.020;21.378;2023-09-19T05:37:41;17.60;;;12.93;;
63112;SDS011;49206;48.020;21.378;2023-09-19T05:38:44;19.52;;;13.35;;
63112;SDS011;49206;48.020;21.378;2023-09-19T05:39:47;18.17;;;14.10;;
63112;SDS011;49206;48.020;21.378;2023-09-19T05:40:49;22.63;;;14.95;;
63112;SDS011;49206;48.020;21.378;2023-09-19T05:41:54;19.67;;;13.85;;
63112;SDS011;49206;48.020;21.378;2023-09-19T05:42:59;18.50;;;13.57;;
63112;SDS011;49206;48.020;21.378;2023-09-19T05:44:02;18.80;;;13.98;;
63112;SDS011;49206;48.020;21.378;2023-09-19T05:45:05;19.13;;;13.10;;
63112;SDS011;49206;48.020;21.378;2023-09-19T05:46:08;18.50;;;12.93;;
63112;SDS011;49206;48.020;21.378;2023-09-19T05:47:11;16.33;;;13.35;;
63112;SDS011;49206;48.020;21.378;2023-09-19T05:48:15;16.20;;;12.77;;
63112;SDS011;49206;48.020;21.378;2023-09-19T05:49:18;18.80;;;12.52;;
63112;SDS011;49206;48.020;21.378;2023-09-19T05:50:24;18.65;;;12.77;;
63112;SDS011;49206;48.020;21.378;2023-09-19T05:51:27;20.77;;;13.75;;
63112;SDS011;49206;48.020;21.378;2023-09-19T05:52:30;20.65;;;12.95;;
63112;SDS011;49206;48.020;21.378;2023-09-19T05:53:33;18.80;;;12.30;;
63112;SDS011;49206;48.020;21.378;2023-09-19T05:54:35;16.70;;;11.07;;
63112;SDS011;49206;48.020;21.378;2023-09-19T05:56:42;17.05;;;12.15;;
63112;SDS011;49206;48.020;21.378;2023-09-19T05:57:49;20.45;;;12.48;;
63112;SDS011;49206;48.020;21.378;2023-09-19T05:58:54;14.15;;;11.27;;
63112;SDS011;49206;48.020;21.378;2023-09-19T06:00:00;18.98;;;12.07;;
63112;SDS011;49206;48.020;21.378;2023-09-19T06:01:13;20.30;;;11.85;;
63112;SDS011;49206;48.020;21.378;2023-09-19T06:02:15;14.90;;;11.25;;
63112;SDS011;49206;48.020;21.378;2023-09-19T06:03:18;12.90;;;10.07;;
63112;SDS011;49206;48.020;21.378;2023-09-19T06:04:21;17.83;;;11.68;;
63112;SDS011;49206;48.020;21.378;2023-09-19T06:05:24;14.35;;;11.43;;
63112;SDS011;49206;48.020;21.378;2023-09-19T06:06:32;17.98;;;11.07;;
63112;SDS011;49206;48.020;21.378;2023-09-19T06:07:39;17.33;;;10.77;;
63112;SDS011;49206;48.020;21.378;2023-09-19T06:08:41;16.15;;;10.57;;
63112;SDS011;49206;48.020;21.378;2023-09-19T06:09:48;18.75;;;11.68;;
63112;SDS011;49206;48.020;21.378;2023-09-19T06:10:51;15.38;;;10.57;;
63112;SDS011;49206;48.020;21.378;2023-09-19T06:11:56;14.57;;;10.43;;
63112;SDS011;49206;48.020;21.378;2023-09-19T06:12:59;12.50;;;9.80;;
63112;SDS011;49206;48.020;21.378;2023-09-19T06:14:02;20.95;;;10.90;;
63112;SDS011;49206;48.020;21.378;2023-09-19T06:15:05;17.48;;;10.57;;
63112;SDS011;49206;48.020;21.378;2023-09-19T06:16:13;13.57;;;10.13;;
63112;SDS011;49206;48.020;21.378;2023-09-19T06:17:16;16.33;;;9.98;;
63112;SDS011;49206;48.020;21.378;2023-09-19T06:18:19;12.85;;;9.48;;
63112;SDS011;49206;48.020;21.378;2023-09-19T06:19:22;14.27;;;9.95;;
63112;SDS011;49206;48.020;21.378;2023-09-19T06:20:28;14.10;;;10.77;;
63112;SDS011;49206;48.020;21.378;2023-09-19T06:21:31;13.80;;;9.55;;
63112;SDS011;49206;48.020;21.378;2023-09-19T06:22:34;12.50;;;8.32;;
63112;SDS011;49206;48.020;21.378;2023-09-19T06:23:37;13.13;;;9.70;;
63112;SDS011;49206;48.020;21.378;2023-09-19T06:24:40;14.70;;;11.18;;
63112;SDS011;49206;48.020;21.378;2023-09-19T06:25:43;21.02;;;10.48;;
63112;SDS011;49206;48.020;21.378;2023-09-19T06:26:46;13.27;;;9.85;;
63112;SDS011;49206;48.020;21.378;2023-09-19T06:28:54;13.55;;;9.50;;
63112;SDS011;49206;48.020;21.378;2023-09-19T06:29:58;14.52;;;10.38;;
63112;SDS011;49206;48.020;21.378;2023-09-19T06:31:02;15.45;;;10.68;;
63112;SDS011;49206;48.020;21.378;2023-09-19T06:32:07;15.52;;;11.52;;
63112;SDS011;49206;48.020;21.378;2023-09-19T06:33:13;11.48;;;9.20;;
63112;SDS011;49206;48.020;21.378;2023-09-19T06:34:20;13.82;;;9.93;;
63112;SDS011;49206;48.020;21.378;2023-09-19T06:35:22;13.13;;;10.30;;
63112;SDS011;49206;48.020;21.378;2023-09-19T06:36:25;14.30;;;10.10;;
63112;SDS011;49206;48.020;21.378;2023-09-19T06:37:31;12.80;;;9.93;;
63112;SDS011;49206;48.020;21.378;2023-09-19T06:38:35;14.02;;;10.15;;
63112;SDS011;49206;48.020;21.378;2023-09-19T06:39:38;13.20;;;9.40;;
63112;SDS011;49206;48.020;21.378;2023-09-19T06:40:41;15.35;;;8.68;;
63112;SDS011;49206;48.020;21.378;2023-09-19T06:41:44;13.90;;;10.35;;
63112;SDS011;49206;48.020;21.378;2023-09-19T06:42:52;14.88;;;10.35;;
63112;SDS011;49206;48.020;21.378;2023-09-19T06:43:58;14.75;;;9.13;;